sensor_id;sensor_type;location;lat;lon;timestamp;temperature;humidity
20288;DHT22;10303;51.960;8.372;2023-03-05T00:01:19;5.80;99.90
20288;DHT22;10303;51.960;8.372;2023-03-05T00:03:49;5.70;99.90
20288;DHT22;10303;51.960;8.372;2023-03-05T00:06:17;6.60;99.90
20288;DHT22;10303;51.960;8.372;2023-03-05T00:08:44;5.70;99.90
20288;DHT22;10303;51.960;8.372;2023-03-05T00:11:11;5.90;99.90
20288;DHT22;10303;51.960;8.372;2023-03-05T00:13:38;5.60;99.90
20288;DHT22;10303;51.960;8.372;2023-03-05T00:16:07;5.50;99.90
20288;DHT22;10303;51.960;8.372;2023-03-05T00:18:35;5.50;99.90
20288;DHT22;10303;51.960;8.372;2023-03-05T00:21:01;5.40;99.90
20288;DHT22;10303;51.960;8.372;2023-03-05T00:23:28;5.40;99.90
20288;DHT22;10303;51.960;8.372;2023-03-05T00:25:54;5.60;99.90
20288;DHT22;10303;51.960;8.372;2023-03-05T00:28:20;5.60;99.90
20288;DHT22;10303;51.960;8.372;2023-03-05T00:30:46;5.70;99.90
20288;DHT22;10303;51.960;8.372;2023-03-05T00:33:13;5.70;99.90
20288;DHT22;10303;51.960;8.372;2023-03-05T00:35:41;5.60;99.90
20288;DHT22;10303;51.960;8.372;2023-03-05T00:38:09;5.50;99.90
20288;DHT22;10303;51.960;8.372;2023-03-05T00:40:37;5.70;99.90
20288;DHT22;10303;51.960;8.372;2023-03-05T00:43:05;5.60;99.90
20288;DHT22;10303;51.960;8.372;2023-03-05T00:45:32;5.70;99.90
20288;DHT22;10303;51.960;8.372;2023-03-05T00:47:58;5.60;99.90
20288;DHT22;10303;51.960;8.372;2023-03-05T00:50:25;5.60;99.90
20288;DHT22;10303;51.960;8.372;2023-03-05T00:52:51;5.50;99.90
20288;DHT22;10303;51.960;8.372;2023-03-05T00:55:17;5.60;99.90
20288;DHT22;10303;51.960;8.372;2023-03-05T00:57:43;5.80;99.90
20288;DHT22;10303;51.960;8.372;2023-03-05T01:00:11;5.60;99.90
20288;DHT22;10303;51.960;8.372;2023-03-05T01:02:37;5.30;99.90
20288;DHT22;10303;51.960;8.372;2023-03-05T01:05:04;5.30;99.90
20288;DHT22;10303;51.960;8.372;2023-03-05T01:07:30;5.40;99.90
20288;DHT22;10303;51.960;8.372;2023-03-05T01:09:56;5.20;99.90
20288;DHT22;10303;51.960;8.372;2023-03-05T01:12:22;5.30;99.90
20288;DHT22;10303;51.960;8.372;2023-03-05T01:14:48;5.30;99.90
20288;DHT22;10303;51.960;8.372;2023-03-05T01:17:14;5.20;99.90
20288;DHT22;10303;51.960;8.372;2023-03-05T01:19:40;5.30;99.90
20288;DHT22;10303;51.960;8.372;2023-03-05T01:22:06;5.40;99.90
20288;DHT22;10303;51.960;8.372;2023-03-05T01:24:33;5.40;99.90
20288;DHT22;10303;51.960;8.372;2023-03-05T01:26:58;5.50;99.90
20288;DHT22;10303;51.960;8.372;2023-03-05T01:29:24;5.60;99.90
20288;DHT22;10303;51.960;8.372;2023-03-05T01:31:50;5.60;99.90
20288;DHT22;10303;51.960;8.372;2023-03-05T01:34:16;6.40;99.90
20288;DHT22;10303;51.960;8.372;2023-03-05T01:36:43;5.40;99.90
20288;DHT22;10303;51.960;8.372;2023-03-05T01:39:09;5.20;99.90
20288;DHT22;10303;51.960;8.372;2023-03-05T01:41:35;5.20;99.90
20288;DHT22;10303;51.960;8.372;2023-03-05T01:44:01;5.00;99.90
20288;DHT22;10303;51.960;8.372;2023-03-05T01:46:37;5.10;99.90
20288;DHT22;10303;51.960;8.372;2023-03-05T01:49:26;4.80;99.90
20288;DHT22;10303;51.960;8.372;2023-03-05T01:52:06;4.70;99.90
20288;DHT22;10303;51.960;8.372;2023-03-05T01:54:42;4.90;99.90
20288;DHT22;10303;51.960;8.372;2023-03-05T01:57:17;5.00;99.90
20288;DHT22;10303;51.960;8.372;2023-03-05T01:59:50;5.00;99.90
20288;DHT22;10303;51.960;8.372;2023-03-05T02:02:20;5.50;99.90
20288;DHT22;10303;51.960;8.372;2023-03-05T02:04:56;5.00;99.90
20288;DHT22;10303;51.960;8.372;2023-03-05T02:07:28;4.90;99.90
20288;DHT22;10303;51.960;8.372;2023-03-05T02:09:56;4.80;99.90
20288;DHT22;10303;51.960;8.372;2023-03-05T02:12:22;4.80;99.90
20288;DHT22;10303;51.960;8.372;2023-03-05T02:14:49;4.80;99.90
20288;DHT22;10303;51.960;8.372;2023-03-05T02:17:26;4.90;99.90
20288;DHT22;10303;51.960;8.372;2023-03-05T02:19:55;5.00;99.90
20288;DHT22;10303;51.960;8.372;2023-03-05T02:22:27;5.20;99.90
20288;DHT22;10303;51.960;8.372;2023-03-05T02:24:53;5.40;99.90
20288;DHT22;10303;51.960;8.372;2023-03-05T02:27:22;5.40;99.90
20288;DHT22;10303;51.960;8.372;2023-03-05T02:30:00;5.50;99.90
20288;DHT22;10303;51.960;8.372;2023-03-05T02:32:26;5.50;99.90
20288;DHT22;10303;51.960;8.372;2023-03-05T02:34:52;5.30;99.90
20288;DHT22;10303;51.960;8.372;2023-03-05T02:37:19;5.40;99.90
20288;DHT22;10303;51.960;8.372;2023-03-05T02:39:45;5.50;99.90
20288;DHT22;10303;51.960;8.372;2023-03-05T02:42:11;5.50;99.90
20288;DHT22;10303;51.960;8.372;2023-03-05T02:44:37;5.30;99.90
20288;DHT22;10303;51.960;8.372;2023-03-05T02:47:04;5.20;99.90
20288;DHT22;10303;51.960;8.372;2023-03-05T02:49:31;5.10;99.90
20288;DHT22;10303;51.960;8.372;2023-03-05T02:51:57;4.90;99.90
20288;DHT22;10303;51.960;8.372;2023-03-05T02:54:23;4.90;99.90
20288;DHT22;10303;51.960;8.372;2023-03-05T02:56:49;5.00;99.90
20288;DHT22;10303;51.960;8.372;2023-03-05T02:59:15;5.00;99.90
20288;DHT22;10303;51.960;8.372;2023-03-05T03:01:41;4.90;99.90
20288;DHT22;10303;51.960;8.372;2023-03-05T03:04:07;5.00;99.90
20288;DHT22;10303;51.960;8.372;2023-03-05T03:06:33;4.90;99.90
20288;DHT22;10303;51.960;8.372;2023-03-05T03:08:58;4.90;99.90
20288;DHT22;10303;51.960;8.372;2023-03-05T03:11:24;4.70;99.90
20288;DHT22;10303;51.960;8.372;2023-03-05T03:13:50;4.90;99.90
20288;DHT22;10303;51.960;8.372;2023-03-05T03:16:16;4.70;99.90
20288;DHT22;10303;51.960;8.372;2023-03-05T03:18:42;4.60;99.90
20288;DHT22;10303;51.960;8.372;2023-03-05T03:21:20;4.60;99.90
20288;DHT22;10303;51.960;8.372;2023-03-05T03:23:48;4.70;99.90
20288;DHT22;10303;51.960;8.372;2023-03-05T03:26:15;4.70;99.90
20288;DHT22;10303;51.960;8.372;2023-03-05T03:28:42;4.80;99.90
20288;DHT22;10303;51.960;8.372;2023-03-05T03:31:08;4.80;99.90
20288;DHT22;10303;51.960;8.372;2023-03-05T03:33:34;4.80;99.90
20288;DHT22;10303;51.960;8.372;2023-03-05T03:36:00;4.60;99.90
20288;DHT22;10303;51.960;8.372;2023-03-05T03:38:26;4.60;99.90
20288;DHT22;10303;51.960;8.372;2023-03-05T03:40:52;4.60;99.90
20288;DHT22;10303;51.960;8.372;2023-03-05T03:43:18;4.60;99.90
20288;DHT22;10303;51.960;8.372;2023-03-05T03:45:44;4.60;99.90
20288;DHT22;10303;51.960;8.372;2023-03-05T03:48:10;4.70;99.90
20288;DHT22;10303;51.960;8.372;2023-03-05T03:50:40;4.80;99.90
20288;DHT22;10303;51.960;8.372;2023-03-05T03:53:08;4.90;99.90
20288;DHT22;10303;51.960;8.372;2023-03-05T03:55:39;4.90;99.90
20288;DHT22;10303;51.960;8.372;2023-03-05T03:58:07;5.00;99.90
20288;DHT22;10303;51.960;8.372;2023-03-05T04:00:34;5.70;99.90
20288;DHT22;10303;51.960;8.372;2023-03-05T04:03:00;4.80;99.90
20288;DHT22;10303;51.960;8.372;2023-03-05T04:05:26;4.70;99.90
20288;DHT22;10303;51.960;8.372;2023-03-05T04:07:52;4.70;99.90
20288;DHT22;10303;51.960;8.372;2023-03-05T04:10:18;4.70;99.90
20288;DHT22;10303;51.960;8.372;2023-03-05T04:12:44;4.70;99.90
20288;DHT22;10303;51.960;8.372;2023-03-05T04:15:11;4.70;99.90
20288;DHT22;10303;51.960;8.372;2023-03-05T04:17:37;4.90;99.90
20288;DHT22;10303;51.960;8.372;2023-03-05T04:20:04;4.80;99.90
20288;DHT22;10303;51.960;8.372;2023-03-05T04:22:32;4.70;99.90
20288;DHT22;10303;51.960;8.372;2023-03-05T04:24:58;5.10;99.90
20288;DHT22;10303;51.960;8.372;2023-03-05T04:27:24;5.00;99.90
20288;DHT22;10303;51.960;8.372;2023-03-05T04:29:50;4.80;99.90
20288;DHT22;10303;51.960;8.372;2023-03-05T04:32:16;5.00;99.90
20288;DHT22;10303;51.960;8.372;2023-03-05T04:34:47;5.30;99.90
20288;DHT22;10303;51.960;8.372;2023-03-05T04:37:13;5.30;99.90
20288;DHT22;10303;51.960;8.372;2023-03-05T04:39:39;5.40;99.90
20288;DHT22;10303;51.960;8.372;2023-03-05T04:42:05;5.60;99.90
20288;DHT22;10303;51.960;8.372;2023-03-05T04:44:31;5.40;99.90
20288;DHT22;10303;51.960;8.372;2023-03-05T04:46:57;5.40;99.90
20288;DHT22;10303;51.960;8.372;2023-03-05T04:49:23;5.20;99.90
20288;DHT22;10303;51.960;8.372;2023-03-05T04:51:49;5.00;99.90
20288;DHT22;10303;51.960;8.372;2023-03-05T04:54:14;5.00;99.90
20288;DHT22;10303;51.960;8.372;2023-03-05T04:56:40;5.00;99.90
20288;DHT22;10303;51.960;8.372;2023-03-05T04:59:06;6.50;99.90
20288;DHT22;10303;51.960;8.372;2023-03-05T05:01:32;5.10;99.90
20288;DHT22;10303;51.960;8.372;2023-03-05T05:04:00;4.90;99.90
20288;DHT22;10303;51.960;8.372;2023-03-05T05:06:26;4.90;99.90
20288;DHT22;10303;51.960;8.372;2023-03-05T05:08:52;4.90;99.90
20288;DHT22;10303;51.960;8.372;2023-03-05T05:11:18;4.70;99.90
20288;DHT22;10303;51.960;8.372;2023-03-05T05:13:43;4.70;99.90
20288;DHT22;10303;51.960;8.372;2023-03-05T05:16:09;4.60;99.90
20288;DHT22;10303;51.960;8.372;2023-03-05T05:18:35;4.80;99.90
20288;DHT22;10303;51.960;8.372;2023-03-05T05:21:05;4.60;99.90
20288;DHT22;10303;51.960;8.372;2023-03-05T05:23:32;4.60;99.90
20288;DHT22;10303;51.960;8.372;2023-03-05T05:25:59;4.70;99.90
20288;DHT22;10303;51.960;8.372;2023-03-05T05:28:27;4.70;99.90
20288;DHT22;10303;51.960;8.372;2023-03-05T05:30:53;4.60;99.90
20288;DHT22;10303;51.960;8.372;2023-03-05T05:33:20;4.70;99.90
20288;DHT22;10303;51.960;8.372;2023-03-05T05:35:47;5.00;99.90
20288;DHT22;10303;51.960;8.372;2023-03-05T05:38:13;5.20;99.90
20288;DHT22;10303;51.960;8.372;2023-03-05T05:40:39;5.20;99.90
20288;DHT22;10303;51.960;8.372;2023-03-05T05:43:05;5.20;99.90
20288;DHT22;10303;51.960;8.372;2023-03-05T05:45:32;6.00;99.90
20288;DHT22;10303;51.960;8.372;2023-03-05T05:47:57;5.10;99.90
20288;DHT22;10303;51.960;8.372;2023-03-05T05:50:23;4.80;99.90
20288;DHT22;10303;51.960;8.372;2023-03-05T05:52:50;4.80;99.90
20288;DHT22;10303;51.960;8.372;2023-03-05T05:55:16;4.90;99.90
20288;DHT22;10303;51.960;8.372;2023-03-05T05:57:42;4.70;99.90
20288;DHT22;10303;51.960;8.372;2023-03-05T06:00:11;4.70;99.90
20288;DHT22;10303;51.960;8.372;2023-03-05T06:02:39;4.80;99.90
20288;DHT22;10303;51.960;8.372;2023-03-05T06:05:07;5.00;99.90
20288;DHT22;10303;51.960;8.372;2023-03-05T06:07:35;5.20;99.90
20288;DHT22;10303;51.960;8.372;2023-03-05T06:10:01;4.80;99.90
20288;DHT22;10303;51.960;8.372;2023-03-05T06:12:27;4.80;99.90
20288;DHT22;10303;51.960;8.372;2023-03-05T06:14:54;4.80;99.90
20288;DHT22;10303;51.960;8.372;2023-03-05T06:17:20;4.70;99.90
20288;DHT22;10303;51.960;8.372;2023-03-05T06:19:45;4.70;99.90
20288;DHT22;10303;51.960;8.372;2023-03-05T06:22:11;4.90;99.90
20288;DHT22;10303;51.960;8.372;2023-03-05T06:24:37;5.10;99.90
20288;DHT22;10303;51.960;8.372;2023-03-05T06:27:04;5.20;99.90
20288;DHT22;10303;51.960;8.372;2023-03-05T06:29:30;5.40;99.90
20288;DHT22;10303;51.960;8.372;2023-03-05T06:31:56;6.80;99.90
20288;DHT22;10303;51.960;8.372;2023-03-05T06:34:22;5.20;99.90
20288;DHT22;10303;51.960;8.372;2023-03-05T06:36:48;5.20;99.90
20288;DHT22;10303;51.960;8.372;2023-03-05T06:39:14;5.20;99.90
20288;DHT22;10303;51.960;8.372;2023-03-05T06:41:40;4.90;99.90
20288;DHT22;10303;51.960;8.372;2023-03-05T06:44:06;4.80;99.90
20288;DHT22;10303;51.960;8.372;2023-03-05T06:46:34;4.80;99.90
20288;DHT22;10303;51.960;8.372;2023-03-05T06:49:02;4.90;99.90
20288;DHT22;10303;51.960;8.372;2023-03-05T06:51:33;4.80;99.90
20288;DHT22;10303;51.960;8.372;2023-03-05T06:54:03;4.80;99.90
20288;DHT22;10303;51.960;8.372;2023-03-05T06:56:31;4.90;99.90
20288;DHT22;10303;51.960;8.372;2023-03-05T06:59:00;4.90;99.90
20288;DHT22;10303;51.960;8.372;2023-03-05T07:01:25;4.90;99.90
20288;DHT22;10303;51.960;8.372;2023-03-05T07:03:53;4.80;99.90
20288;DHT22;10303;51.960;8.372;2023-03-05T07:06:20;4.90;99.90
20288;DHT22;10303;51.960;8.372;2023-03-05T07:08:47;5.00;99.90
20288;DHT22;10303;51.960;8.372;2023-03-05T07:11:18;4.90;99.90
20288;DHT22;10303;51.960;8.372;2023-03-05T07:13:45;4.90;99.90
20288;DHT22;10303;51.960;8.372;2023-03-05T07:16:24;4.80;99.90
20288;DHT22;10303;51.960;8.372;2023-03-05T07:18:52;4.80;99.90
20288;DHT22;10303;51.960;8.372;2023-03-05T07:21:26;5.80;99.90
20288;DHT22;10303;51.960;8.372;2023-03-05T07:23:55;4.50;99.90
20288;DHT22;10303;51.960;8.372;2023-03-05T07:26:22;5.80;99.90
20288;DHT22;10303;51.960;8.372;2023-03-05T07:28:48;4.40;99.90
20288;DHT22;10303;51.960;8.372;2023-03-05T07:31:17;4.40;99.90
20288;DHT22;10303;51.960;8.372;2023-03-05T07:33:47;4.30;99.90
20288;DHT22;10303;51.960;8.372;2023-03-05T07:36:15;4.50;99.90
20288;DHT22;10303;51.960;8.372;2023-03-05T07:38:41;4.50;99.90
20288;DHT22;10303;51.960;8.372;2023-03-05T07:41:12;4.40;99.90
20288;DHT22;10303;51.960;8.372;2023-03-05T07:43:45;4.40;99.90
20288;DHT22;10303;51.960;8.372;2023-03-05T07:46:14;4.60;99.90
20288;DHT22;10303;51.960;8.372;2023-03-05T07:48:41;4.50;99.90
20288;DHT22;10303;51.960;8.372;2023-03-05T07:51:11;4.50;99.90
20288;DHT22;10303;51.960;8.372;2023-03-05T07:53:43;4.60;99.90
20288;DHT22;10303;51.960;8.372;2023-03-05T07:56:11;4.60;99.90
20288;DHT22;10303;51.960;8.372;2023-03-05T07:58:37;4.50;99.90
20288;DHT22;10303;51.960;8.372;2023-03-05T08:01:08;4.40;99.90
20288;DHT22;10303;51.960;8.372;2023-03-05T08:03:37;4.50;99.90
20288;DHT22;10303;51.960;8.372;2023-03-05T08:06:05;4.50;99.90
20288;DHT22;10303;51.960;8.372;2023-03-05T08:08:31;4.60;99.90
20288;DHT22;10303;51.960;8.372;2023-03-05T08:11:03;4.80;99.90
20288;DHT22;10303;51.960;8.372;2023-03-05T08:13:30;5.00;99.90
20288;DHT22;10303;51.960;8.372;2023-03-05T08:15:56;4.70;99.90
20288;DHT22;10303;51.960;8.372;2023-03-05T08:18:22;4.80;99.90
20288;DHT22;10303;51.960;8.372;2023-03-05T08:20:48;5.10;99.90
20288;DHT22;10303;51.960;8.372;2023-03-05T08:23:14;5.50;99.90
20288;DHT22;10303;51.960;8.372;2023-03-05T08:25:40;5.40;99.90
20288;DHT22;10303;51.960;8.372;2023-03-05T08:28:05;5.80;99.90
20288;DHT22;10303;51.960;8.372;2023-03-05T08:30:31;5.50;99.90
20288;DHT22;10303;51.960;8.372;2023-03-05T08:32:57;5.60;99.90
20288;DHT22;10303;51.960;8.372;2023-03-05T08:35:23;5.50;99.90
20288;DHT22;10303;51.960;8.372;2023-03-05T08:37:49;5.30;99.90
20288;DHT22;10303;51.960;8.372;2023-03-05T08:40:16;5.20;99.90
20288;DHT22;10303;51.960;8.372;2023-03-05T08:42:43;5.00;99.90
20288;DHT22;10303;51.960;8.372;2023-03-05T08:45:09;5.00;99.90
20288;DHT22;10303;51.960;8.372;2023-03-05T08:47:35;5.20;99.90
20288;DHT22;10303;51.960;8.372;2023-03-05T08:50:02;5.50;99.90
20288;DHT22;10303;51.960;8.372;2023-03-05T08:52:28;4.90;99.90
20288;DHT22;10303;51.960;8.372;2023-03-05T08:54:54;5.10;99.90
20288;DHT22;10303;51.960;8.372;2023-03-05T08:57:20;5.20;99.90
20288;DHT22;10303;51.960;8.372;2023-03-05T08:59:47;5.00;99.90
20288;DHT22;10303;51.960;8.372;2023-03-05T09:02:13;5.00;99.90
20288;DHT22;10303;51.960;8.372;2023-03-05T09:04:39;5.20;99.90
20288;DHT22;10303;51.960;8.372;2023-03-05T09:07:05;5.30;99.90
20288;DHT22;10303;51.960;8.372;2023-03-05T09:09:32;5.60;99.90
20288;DHT22;10303;51.960;8.372;2023-03-05T09:11:59;5.20;99.90
20288;DHT22;10303;51.960;8.372;2023-03-05T09:14:26;5.60;99.90
20288;DHT22;10303;51.960;8.372;2023-03-05T09:16:54;5.70;99.90
20288;DHT22;10303;51.960;8.372;2023-03-05T09:19:21;5.80;99.90
20288;DHT22;10303;51.960;8.372;2023-03-05T09:21:46;5.70;99.90
20288;DHT22;10303;51.960;8.372;2023-03-05T09:24:13;5.80;99.90
20288;DHT22;10303;51.960;8.372;2023-03-05T09:26:38;6.00;99.90
20288;DHT22;10303;51.960;8.372;2023-03-05T09:29:07;6.10;99.90
20288;DHT22;10303;51.960;8.372;2023-03-05T09:31:35;5.90;99.90
20288;DHT22;10303;51.960;8.372;2023-03-05T09:34:01;5.70;99.90
20288;DHT22;10303;51.960;8.372;2023-03-05T09:36:29;5.70;99.90
20288;DHT22;10303;51.960;8.372;2023-03-05T09:38:56;5.70;99.90
20288;DHT22;10303;51.960;8.372;2023-03-05T09:44:26;5.20;99.90
20288;DHT22;10303;51.960;8.372;2023-03-05T09:53:15;5.80;99.90
20288;DHT22;10303;51.960;8.372;2023-03-05T09:55:53;5.60;99.90
20288;DHT22;10303;51.960;8.372;2023-03-05T09:58:37;5.60;99.90
20288;DHT22;10303;51.960;8.372;2023-03-05T10:01:16;5.70;99.90
20288;DHT22;10303;51.960;8.372;2023-03-05T10:04:09;6.00;99.90
20288;DHT22;10303;51.960;8.372;2023-03-05T10:07:03;6.00;99.90
20288;DHT22;10303;51.960;8.372;2023-03-05T10:09:40;5.80;99.90
20288;DHT22;10303;51.960;8.372;2023-03-05T10:15:15;6.00;99.90
20288;DHT22;10303;51.960;8.372;2023-03-05T10:21:23;6.10;99.90
20288;DHT22;10303;51.960;8.372;2023-03-05T10:24:06;5.90;99.90
20288;DHT22;10303;51.960;8.372;2023-03-05T10:27:05;5.80;99.90
20288;DHT22;10303;51.960;8.372;2023-03-05T10:34:53;5.80;99.90
20288;DHT22;10303;51.960;8.372;2023-03-05T10:37:43;6.20;99.90
20288;DHT22;10303;51.960;8.372;2023-03-05T10:43:34;6.70;99.90
20288;DHT22;10303;51.960;8.372;2023-03-05T10:46:13;6.80;99.90
20288;DHT22;10303;51.960;8.372;2023-03-05T10:48:51;6.40;99.90
20288;DHT22;10303;51.960;8.372;2023-03-05T10:59:46;6.30;99.90
20288;DHT22;10303;51.960;8.372;2023-03-05T11:02:17;6.30;99.90
20288;DHT22;10303;51.960;8.372;2023-03-05T11:04:44;6.80;99.90
20288;DHT22;10303;51.960;8.372;2023-03-05T11:09:40;7.30;99.90
20288;DHT22;10303;51.960;8.372;2023-03-05T11:12:20;7.40;99.90
20288;DHT22;10303;51.960;8.372;2023-03-05T11:18:02;7.70;99.90
20288;DHT22;10303;51.960;8.372;2023-03-05T11:20:35;7.90;99.90
20288;DHT22;10303;51.960;8.372;2023-03-05T11:25:46;8.30;99.90
20288;DHT22;10303;51.960;8.372;2023-03-05T11:28:22;8.30;99.90
20288;DHT22;10303;51.960;8.372;2023-03-05T11:31:07;8.50;99.90
20288;DHT22;10303;51.960;8.372;2023-03-05T11:33:34;8.50;99.90
20288;DHT22;10303;51.960;8.372;2023-03-05T11:36:15;8.80;99.90
20288;DHT22;10303;51.960;8.372;2023-03-05T11:39:07;8.70;99.90
20288;DHT22;10303;51.960;8.372;2023-03-05T11:41:47;8.60;99.90
20288;DHT22;10303;51.960;8.372;2023-03-05T11:44:23;8.60;99.90
20288;DHT22;10303;51.960;8.372;2023-03-05T11:47:00;8.50;99.90
20288;DHT22;10303;51.960;8.372;2023-03-05T11:49:30;8.40;99.90
20288;DHT22;10303;51.960;8.372;2023-03-05T12:00:48;9.50;99.90
20288;DHT22;10303;51.960;8.372;2023-03-05T12:03:20;10.00;99.90
20288;DHT22;10303;51.960;8.372;2023-03-05T12:06:35;9.50;99.90
20288;DHT22;10303;51.960;8.372;2023-03-05T12:09:01;9.70;99.90
20288;DHT22;10303;51.960;8.372;2023-03-05T12:11:32;9.50;99.90
20288;DHT22;10303;51.960;8.372;2023-03-05T12:14:26;9.40;99.90
20288;DHT22;10303;51.960;8.372;2023-03-05T12:17:10;9.30;99.90
20288;DHT22;10303;51.960;8.372;2023-03-05T12:20:01;9.50;99.90
20288;DHT22;10303;51.960;8.372;2023-03-05T12:22:38;9.90;99.90
20288;DHT22;10303;51.960;8.372;2023-03-05T12:28:51;10.50;99.90
20288;DHT22;10303;51.960;8.372;2023-03-05T12:31:36;10.50;99.90
20288;DHT22;10303;51.960;8.372;2023-03-05T12:39:59;10.50;99.90
20288;DHT22;10303;51.960;8.372;2023-03-05T12:47:43;10.60;99.90
20288;DHT22;10303;51.960;8.372;2023-03-05T12:52:53;10.80;99.90
20288;DHT22;10303;51.960;8.372;2023-03-05T12:58:50;11.00;99.90
20288;DHT22;10303;51.960;8.372;2023-03-05T13:01:28;11.20;99.90
20288;DHT22;10303;51.960;8.372;2023-03-05T13:04:03;11.30;99.90
20288;DHT22;10303;51.960;8.372;2023-03-05T13:06:37;10.80;99.90
20288;DHT22;10303;51.960;8.372;2023-03-05T13:11:45;11.00;99.90
20288;DHT22;10303;51.960;8.372;2023-03-05T13:14:38;11.20;99.90
20288;DHT22;10303;51.960;8.372;2023-03-05T13:17:30;10.90;99.90
20288;DHT22;10303;51.960;8.372;2023-03-05T13:20:00;10.30;99.90
20288;DHT22;10303;51.960;8.372;2023-03-05T13:22:31;9.90;99.90
20288;DHT22;10303;51.960;8.372;2023-03-05T13:25:23;9.90;99.90
20288;DHT22;10303;51.960;8.372;2023-03-05T13:27:49;9.60;99.90
20288;DHT22;10303;51.960;8.372;2023-03-05T13:30:23;9.60;99.90
20288;DHT22;10303;51.960;8.372;2023-03-05T13:32:52;9.70;99.90
20288;DHT22;10303;51.960;8.372;2023-03-05T13:35:22;10.00;99.90
20288;DHT22;10303;51.960;8.372;2023-03-05T13:37:48;10.00;99.90
20288;DHT22;10303;51.960;8.372;2023-03-05T13:40:26;10.20;99.90
20288;DHT22;10303;51.960;8.372;2023-03-05T13:42:53;10.10;99.90
20288;DHT22;10303;51.960;8.372;2023-03-05T13:45:25;9.90;99.90
20288;DHT22;10303;51.960;8.372;2023-03-05T13:47:54;9.70;99.90
20288;DHT22;10303;51.960;8.372;2023-03-05T13:50:34;10.00;99.90
20288;DHT22;10303;51.960;8.372;2023-03-05T13:55:57;9.00;99.90
20288;DHT22;10303;51.960;8.372;2023-03-05T14:01:41;8.90;99.90
20288;DHT22;10303;51.960;8.372;2023-03-05T14:09:30;8.30;99.90
20288;DHT22;10303;51.960;8.372;2023-03-05T14:14:55;8.10;99.90
20288;DHT22;10303;51.960;8.372;2023-03-05T14:17:37;8.20;99.90
20288;DHT22;10303;51.960;8.372;2023-03-05T14:22:44;8.10;99.90
20288;DHT22;10303;51.960;8.372;2023-03-05T14:28:00;8.10;99.90
20288;DHT22;10303;51.960;8.372;2023-03-05T14:30:27;8.40;99.90
20288;DHT22;10303;51.960;8.372;2023-03-05T14:32:56;8.10;99.90
20288;DHT22;10303;51.960;8.372;2023-03-05T14:35:26;8.20;99.90
20288;DHT22;10303;51.960;8.372;2023-03-05T14:37:55;8.80;99.90
20288;DHT22;10303;51.960;8.372;2023-03-05T14:40:31;8.40;99.90
20288;DHT22;10303;51.960;8.372;2023-03-05T14:43:01;7.70;99.90
20288;DHT22;10303;51.960;8.372;2023-03-05T14:45:38;7.60;99.90
20288;DHT22;10303;51.960;8.372;2023-03-05T14:48:10;7.80;99.90
20288;DHT22;10303;51.960;8.372;2023-03-05T14:50:47;7.90;99.90
20288;DHT22;10303;51.960;8.372;2023-03-05T14:55:49;7.80;99.90
20288;DHT22;10303;51.960;8.372;2023-03-05T14:58:22;7.60;99.90
20288;DHT22;10303;51.960;8.372;2023-03-05T15:00:53;7.50;99.90
20288;DHT22;10303;51.960;8.372;2023-03-05T15:03:22;7.60;99.90
20288;DHT22;10303;51.960;8.372;2023-03-05T15:05:50;7.20;99.90
20288;DHT22;10303;51.960;8.372;2023-03-05T15:08:28;7.50;99.90
20288;DHT22;10303;51.960;8.372;2023-03-05T15:10:56;7.30;99.90
20288;DHT22;10303;51.960;8.372;2023-03-05T15:13:23;7.20;99.90
20288;DHT22;10303;51.960;8.372;2023-03-05T15:15:50;7.20;99.90
20288;DHT22;10303;51.960;8.372;2023-03-05T15:18:19;7.70;99.90
20288;DHT22;10303;51.960;8.372;2023-03-05T15:20:46;7.70;99.90
20288;DHT22;10303;51.960;8.372;2023-03-05T15:23:14;7.60;99.90
20288;DHT22;10303;51.960;8.372;2023-03-05T15:25:40;7.60;99.90
20288;DHT22;10303;51.960;8.372;2023-03-05T15:28:06;7.70;99.90
20288;DHT22;10303;51.960;8.372;2023-03-05T15:30:38;7.70;99.90
20288;DHT22;10303;51.960;8.372;2023-03-05T15:33:09;8.00;99.90
20288;DHT22;10303;51.960;8.372;2023-03-05T15:35:38;7.70;99.90
20288;DHT22;10303;51.960;8.372;2023-03-05T15:38:05;7.50;99.90
20288;DHT22;10303;51.960;8.372;2023-03-05T15:40:31;8.50;99.90
20288;DHT22;10303;51.960;8.372;2023-03-05T15:42:58;8.20;99.90
20288;DHT22;10303;51.960;8.372;2023-03-05T15:45:25;7.80;99.90
20288;DHT22;10303;51.960;8.372;2023-03-05T15:47:52;7.60;99.90
20288;DHT22;10303;51.960;8.372;2023-03-05T15:50:20;7.60;99.90
20288;DHT22;10303;51.960;8.372;2023-03-05T15:52:47;7.40;99.90
20288;DHT22;10303;51.960;8.372;2023-03-05T15:55:13;7.30;99.90
20288;DHT22;10303;51.960;8.372;2023-03-05T15:57:43;7.30;99.90
20288;DHT22;10303;51.960;8.372;2023-03-05T16:00:14;7.90;99.90
20288;DHT22;10303;51.960;8.372;2023-03-05T16:02:47;7.40;99.90
20288;DHT22;10303;51.960;8.372;2023-03-05T16:05:14;7.50;99.90
20288;DHT22;10303;51.960;8.372;2023-03-05T16:07:42;7.50;99.90
20288;DHT22;10303;51.960;8.372;2023-03-05T16:10:16;7.80;99.90
20288;DHT22;10303;51.960;8.372;2023-03-05T16:12:48;7.80;99.90
20288;DHT22;10303;51.960;8.372;2023-03-05T16:15:18;7.90;99.90
20288;DHT22;10303;51.960;8.372;2023-03-05T16:17:48;7.80;99.90
20288;DHT22;10303;51.960;8.372;2023-03-05T16:20:20;7.70;99.90
20288;DHT22;10303;51.960;8.372;2023-03-05T16:22:46;7.90;99.90
20288;DHT22;10303;51.960;8.372;2023-03-05T16:25:12;7.90;99.90
20288;DHT22;10303;51.960;8.372;2023-03-05T16:27:38;8.00;99.90
20288;DHT22;10303;51.960;8.372;2023-03-05T16:30:05;8.00;99.90
20288;DHT22;10303;51.960;8.372;2023-03-05T16:32:31;7.90;99.90
20288;DHT22;10303;51.960;8.372;2023-03-05T16:34:57;8.00;99.90
20288;DHT22;10303;51.960;8.372;2023-03-05T16:37:24;8.10;99.90
20288;DHT22;10303;51.960;8.372;2023-03-05T16:39:50;8.30;99.90
20288;DHT22;10303;51.960;8.372;2023-03-05T16:42:16;8.60;99.90
20288;DHT22;10303;51.960;8.372;2023-03-05T16:44:43;8.00;99.90
20288;DHT22;10303;51.960;8.372;2023-03-05T16:47:10;7.90;99.90
20288;DHT22;10303;51.960;8.372;2023-03-05T16:49:37;7.70;99.90
20288;DHT22;10303;51.960;8.372;2023-03-05T16:52:04;7.80;99.90
20288;DHT22;10303;51.960;8.372;2023-03-05T16:54:31;7.80;99.90
20288;DHT22;10303;51.960;8.372;2023-03-05T16:56:57;8.40;99.90
20288;DHT22;10303;51.960;8.372;2023-03-05T16:59:24;7.90;99.90
20288;DHT22;10303;51.960;8.372;2023-03-05T17:01:50;7.80;99.90
20288;DHT22;10303;51.960;8.372;2023-03-05T17:04:16;7.80;99.90
20288;DHT22;10303;51.960;8.372;2023-03-05T17:06:44;7.90;99.90
20288;DHT22;10303;51.960;8.372;2023-03-05T17:09:12;7.50;99.90
20288;DHT22;10303;51.960;8.372;2023-03-05T17:11:39;7.70;99.90
20288;DHT22;10303;51.960;8.372;2023-03-05T17:14:05;7.80;99.90
20288;DHT22;10303;51.960;8.372;2023-03-05T17:16:31;7.70;99.90
20288;DHT22;10303;51.960;8.372;2023-03-05T17:18:57;7.60;99.90
20288;DHT22;10303;51.960;8.372;2023-03-05T17:21:23;7.80;99.90
20288;DHT22;10303;51.960;8.372;2023-03-05T17:23:49;7.90;99.90
20288;DHT22;10303;51.960;8.372;2023-03-05T17:26:19;8.00;99.90
20288;DHT22;10303;51.960;8.372;2023-03-05T17:28:45;7.80;99.90
20288;DHT22;10303;51.960;8.372;2023-03-05T17:31:12;7.90;99.90
20288;DHT22;10303;51.960;8.372;2023-03-05T17:33:38;8.00;99.90